<?xml version="1.0" encoding="utf-8"?>
<gpx xmlns:xsi="http://www.w3.org/2001/XMLSchema-instance" xmlns:xsd="http://www.w3.org/2001/XMLSchema" version="1.1" creator="Shapelink.com" xmlns="http://www.topografix.com/GPX/1/1" xmlns:gpxtpx="http://www.garmin.com/xmlschemas/TrackPointExtension/v1">
  <metadata>
    <name>Cycling 25.06 km, 2020-06-07</name>
    <desc></desc>
    <author><name>Marian Moron</name></author> 
    <time>2020-06-07T13:16:30Z</time>
  </metadata>
  <trk>
    <name>Cycling 25.06 km, 2020-06-07</name>
    <trkseg>
      <trkpt lat="51.228889950205" lon="4.449039010737">
        <ele>0</ele>
        <time>2020-06-07T13:16:30Z</time>
      </trkpt>
      <trkpt lat="51.228863295763" lon="4.448995257219">
        <ele>0</ele>
        <time>2020-06-07T13:16:37Z</time>
      </trkpt>
      <trkpt lat="51.228985587684" lon="4.4486347517">
        <ele>0</ele>
        <time>2020-06-07T13:16:55Z</time>
      </trkpt>
      <trkpt lat="51.228563307562" lon="4.448440375439">
        <ele>0</ele>
        <time>2020-06-07T13:17:21Z</time>
      </trkpt>
      <trkpt lat="51.228121162337" lon="4.448994838124">
        <ele>0</ele>
        <time>2020-06-07T13:17:41Z</time>
      </trkpt>
      <trkpt lat="51.227683208062" lon="4.449517030494">
        <ele>0</ele>
        <time>2020-06-07T13:18:03Z</time>
      </trkpt>
      <trkpt lat="51.227212564377" lon="4.449983650867">
        <ele>0</ele>
        <time>2020-06-07T13:18:23Z</time>
      </trkpt>
      <trkpt lat="51.226987175086" lon="4.45014768465">
        <ele>0</ele>
        <time>2020-06-07T13:18:33Z</time>
      </trkpt>
      <trkpt lat="51.226968483449" lon="4.44958609735">
        <ele>0</ele>
        <time>2020-06-07T13:18:48Z</time>
      </trkpt>
      <trkpt lat="51.226555339598" lon="4.449679304078">
        <ele>0</ele>
        <time>2020-06-07T13:19:10Z</time>
      </trkpt>
      <trkpt lat="51.226529271889" lon="4.449651811446">
        <ele>0</ele>
        <time>2020-06-07T13:19:12Z</time>
      </trkpt>
      <trkpt lat="51.226520470894" lon="4.449592970508">
        <ele>0</ele>
        <time>2020-06-07T13:19:14Z</time>
      </trkpt>
      <trkpt lat="51.226536312685" lon="4.449441844851">
        <ele>0</ele>
        <time>2020-06-07T13:19:18Z</time>
      </trkpt>
      <trkpt lat="51.226177818822" lon="4.4489532639">
        <ele>0</ele>
        <time>2020-06-07T13:19:37Z</time>
      </trkpt>
      <trkpt lat="51.225824605556" lon="4.449626079013">
        <ele>0</ele>
        <time>2020-06-07T13:19:58Z</time>
      </trkpt>
      <trkpt lat="51.225286487576" lon="4.44979732123">
        <ele>0</ele>
        <time>2020-06-07T13:20:15Z</time>
      </trkpt>
      <trkpt lat="51.224798828634" lon="4.450179619689">
        <ele>0</ele>
        <time>2020-06-07T13:20:30Z</time>
      </trkpt>
      <trkpt lat="51.224395659244" lon="4.450838437029">
        <ele>0</ele>
        <time>2020-06-07T13:20:43Z</time>
      </trkpt>
      <trkpt lat="51.223959046073" lon="4.451393486447">
        <ele>0</ele>
        <time>2020-06-07T13:20:58Z</time>
      </trkpt>
      <trkpt lat="51.223416401867" lon="4.451294244751">
        <ele>0</ele>
        <time>2020-06-07T13:21:15Z</time>
      </trkpt>
      <trkpt lat="51.222884151217" lon="4.451129708054">
        <ele>0</ele>
        <time>2020-06-07T13:21:33Z</time>
      </trkpt>
      <trkpt lat="51.222329772351" lon="4.451136078298">
        <ele>0</ele>
        <time>2020-06-07T13:21:50Z</time>
      </trkpt>
      <trkpt lat="51.221806322696" lon="4.45144855553">
        <ele>0</ele>
        <time>2020-06-07T13:22:08Z</time>
      </trkpt>
      <trkpt lat="51.221261834472" lon="4.451664221817">
        <ele>0</ele>
        <time>2020-06-07T13:22:30Z</time>
      </trkpt>
      <trkpt lat="51.220712065651" lon="4.451824148469">
        <ele>0</ele>
        <time>2020-06-07T13:22:48Z</time>
      </trkpt>
      <trkpt lat="51.220174953499" lon="4.451986841148">
        <ele>0</ele>
        <time>2020-06-07T13:23:04Z</time>
      </trkpt>
      <trkpt lat="51.219610516353" lon="4.452089100328">
        <ele>7.8</ele>
        <time>2020-06-07T13:23:20Z</time>
      </trkpt>
      <trkpt lat="51.219072314554" lon="4.45214173866">
        <ele>11</ele>
        <time>2020-06-07T13:23:33Z</time>
      </trkpt>
      <trkpt lat="51.219040463334" lon="4.452110390354">
        <ele>10.2</ele>
        <time>2020-06-07T13:23:34Z</time>
      </trkpt>
      <trkpt lat="51.218977599084" lon="4.452017854178">
        <ele>9</ele>
        <time>2020-06-07T13:23:36Z</time>
      </trkpt>
      <trkpt lat="51.218867796194" lon="4.451816269483">
        <ele>5.6</ele>
        <time>2020-06-07T13:23:40Z</time>
      </trkpt>
      <trkpt lat="51.218789425429" lon="4.451762709142">
        <ele>3.8</ele>
        <time>2020-06-07T13:23:42Z</time>
      </trkpt>
      <trkpt lat="51.21849262235" lon="4.451729935913">
        <ele>2.8</ele>
        <time>2020-06-07T13:23:49Z</time>
      </trkpt>
      <trkpt lat="51.218258264426" lon="4.45205037595">
        <ele>0</ele>
        <time>2020-06-07T13:24:20Z</time>
      </trkpt>
      <trkpt lat="51.218247451775" lon="4.452200579598">
        <ele>0</ele>
        <time>2020-06-07T13:24:39Z</time>
      </trkpt>
      <trkpt lat="51.218209397949" lon="4.452793431385">
        <ele>0</ele>
        <time>2020-06-07T13:24:55Z</time>
      </trkpt>
      <trkpt lat="51.217731378192" lon="4.452578854745">
        <ele>0</ele>
        <time>2020-06-07T13:25:18Z</time>
      </trkpt>
      <trkpt lat="51.21722695545" lon="4.45270751691">
        <ele>0.2</ele>
        <time>2020-06-07T13:25:38Z</time>
      </trkpt>
      <trkpt lat="51.216978432115" lon="4.453519387744">
        <ele>0</ele>
        <time>2020-06-07T13:25:53Z</time>
      </trkpt>
      <trkpt lat="51.216853038891" lon="4.454368222757">
        <ele>0</ele>
        <time>2020-06-07T13:26:15Z</time>
      </trkpt>
      <trkpt lat="51.216868293949" lon="4.455256536519">
        <ele>0</ele>
        <time>2020-06-07T13:26:39Z</time>
      </trkpt>
      <trkpt lat="51.216946077981" lon="4.456132696526">
        <ele>0</ele>
        <time>2020-06-07T13:26:54Z</time>
      </trkpt>
      <trkpt lat="51.216556235812" lon="4.456653547792">
        <ele>0</ele>
        <time>2020-06-07T13:27:13Z</time>
      </trkpt>
      <trkpt lat="51.216296732188" lon="4.45744915774">
        <ele>0</ele>
        <time>2020-06-07T13:27:33Z</time>
      </trkpt>
      <trkpt lat="51.215979393454" lon="4.458179891782">
        <ele>0</ele>
        <time>2020-06-07T13:27:54Z</time>
      </trkpt>
      <trkpt lat="51.215556526599" lon="4.458715243735">
        <ele>0</ele>
        <time>2020-06-07T13:28:15Z</time>
      </trkpt>
      <trkpt lat="51.21509124733" lon="4.45915319801">
        <ele>0</ele>
        <time>2020-06-07T13:28:34Z</time>
      </trkpt>
      <trkpt lat="51.214613227573" lon="4.459595846149">
        <ele>0</ele>
        <time>2020-06-07T13:28:52Z</time>
      </trkpt>
      <trkpt lat="51.214168986873" lon="4.460077889218">
        <ele>0</ele>
        <time>2020-06-07T13:29:11Z</time>
      </trkpt>
      <trkpt lat="51.213715358445" lon="4.460599662493">
        <ele>0</ele>
        <time>2020-06-07T13:29:29Z</time>
      </trkpt>
      <trkpt lat="51.213240942905" lon="4.461088327263">
        <ele>0</ele>
        <time>2020-06-07T13:29:47Z</time>
      </trkpt>
      <trkpt lat="51.212823021371" lon="4.461633905134">
        <ele>0</ele>
        <time>2020-06-07T13:30:05Z</time>
      </trkpt>
      <trkpt lat="51.212409793701" lon="4.462192558769">
        <ele>0</ele>
        <time>2020-06-07T13:30:23Z</time>
      </trkpt>
      <trkpt lat="51.212053982046" lon="4.462894794351">
        <ele>0</ele>
        <time>2020-06-07T13:30:41Z</time>
      </trkpt>
      <trkpt lat="51.211735469846" lon="4.463639693804">
        <ele>0</ele>
        <time>2020-06-07T13:30:58Z</time>
      </trkpt>
      <trkpt lat="51.211669504293" lon="4.463999780228">
        <ele>0</ele>
        <time>2020-06-07T13:31:07Z</time>
      </trkpt>
      <trkpt lat="51.211122166223" lon="4.463989889586">
        <ele>3.2</ele>
        <time>2020-06-07T13:31:31Z</time>
      </trkpt>
      <trkpt lat="51.210608523391" lon="4.463745892477">
        <ele>0</ele>
        <time>2020-06-07T13:31:50Z</time>
      </trkpt>
      <trkpt lat="51.210072500886" lon="4.463551600035">
        <ele>0</ele>
        <time>2020-06-07T13:32:08Z</time>
      </trkpt>
      <trkpt lat="51.209619375372" lon="4.463420507119">
        <ele>0.2</ele>
        <time>2020-06-07T13:32:27Z</time>
      </trkpt>
      <trkpt lat="51.209595906052" lon="4.46346987651">
        <ele>0.4</ele>
        <time>2020-06-07T13:32:29Z</time>
      </trkpt>
      <trkpt lat="51.209565815031" lon="4.463612201172">
        <ele>0</ele>
        <time>2020-06-07T13:32:35Z</time>
      </trkpt>
      <trkpt lat="51.209571849999" lon="4.463662324934">
        <ele>9.2</ele>
        <time>2020-06-07T13:33:07Z</time>
      </trkpt>
      <trkpt lat="51.209575035121" lon="4.46370959885">
        <ele>9.6</ele>
        <time>2020-06-07T13:33:09Z</time>
      </trkpt>
      <trkpt lat="51.209553074543" lon="4.464597577336">
        <ele>10.2</ele>
        <time>2020-06-07T13:33:25Z</time>
      </trkpt>
      <trkpt lat="51.209416784849" lon="4.465477090103">
        <ele>4.6</ele>
        <time>2020-06-07T13:33:41Z</time>
      </trkpt>
      <trkpt lat="51.209259791862" lon="4.466305640918">
        <ele>2.2</ele>
        <time>2020-06-07T13:33:56Z</time>
      </trkpt>
      <trkpt lat="51.20911579082" lon="4.46716294165">
        <ele>0</ele>
        <time>2020-06-07T13:34:14Z</time>
      </trkpt>
      <trkpt lat="51.208959300747" lon="4.467995515777">
        <ele>0</ele>
        <time>2020-06-07T13:34:32Z</time>
      </trkpt>
      <trkpt lat="51.208911523917" lon="4.468856253088">
        <ele>0</ele>
        <time>2020-06-07T13:34:51Z</time>
      </trkpt>
      <trkpt lat="51.208940525291" lon="4.469757474976">
        <ele>8.2</ele>
        <time>2020-06-07T13:35:08Z</time>
      </trkpt>
      <trkpt lat="51.208899370162" lon="4.470620140124">
        <ele>0</ele>
        <time>2020-06-07T13:35:27Z</time>
      </trkpt>
      <trkpt lat="51.208861483974" lon="4.471313407073">
        <ele>0</ele>
        <time>2020-06-07T13:35:41Z</time>
      </trkpt>
      <trkpt lat="51.208312218067" lon="4.471164795986">
        <ele>0</ele>
        <time>2020-06-07T13:36:01Z</time>
      </trkpt>
      <trkpt lat="51.207854650146" lon="4.471020878763">
        <ele>0</ele>
        <time>2020-06-07T13:36:19Z</time>
      </trkpt>
      <trkpt lat="51.207682318282" lon="4.471838616927">
        <ele>0</ele>
        <time>2020-06-07T13:36:40Z</time>
      </trkpt>
      <trkpt lat="51.207626159552" lon="4.471999633226">
        <ele>0</ele>
        <time>2020-06-07T13:36:45Z</time>
      </trkpt>
      <trkpt lat="51.207123748466" lon="4.471678774094">
        <ele>0</ele>
        <time>2020-06-07T13:37:04Z</time>
      </trkpt>
      <trkpt lat="51.206620666828" lon="4.47136814088">
        <ele>0</ele>
        <time>2020-06-07T13:37:22Z</time>
      </trkpt>
      <trkpt lat="51.206096127526" lon="4.471142500132">
        <ele>0</ele>
        <time>2020-06-07T13:37:41Z</time>
      </trkpt>
      <trkpt lat="51.205820363016" lon="4.471078713873">
        <ele>0</ele>
        <time>2020-06-07T13:37:52Z</time>
      </trkpt>
      <trkpt lat="51.205804521225" lon="4.471103608116">
        <ele>0</ele>
        <time>2020-06-07T13:37:56Z</time>
      </trkpt>
      <trkpt lat="51.205567229636" lon="4.471879185323">
        <ele>13.6</ele>
        <time>2020-06-07T13:38:21Z</time>
      </trkpt>
      <trkpt lat="51.205454660719" lon="4.472770768026">
        <ele>13.6</ele>
        <time>2020-06-07T13:38:40Z</time>
      </trkpt>
      <trkpt lat="51.20532801021" lon="4.473616837012">
        <ele>16</ele>
        <time>2020-06-07T13:38:59Z</time>
      </trkpt>
      <trkpt lat="51.205236563681" lon="4.474486794413">
        <ele>13.6</ele>
        <time>2020-06-07T13:39:19Z</time>
      </trkpt>
      <trkpt lat="51.205145200971" lon="4.475338814548">
        <ele>13.4</ele>
        <time>2020-06-07T13:39:38Z</time>
      </trkpt>
      <trkpt lat="51.205146793532" lon="4.47547108093">
        <ele>8</ele>
        <time>2020-06-07T13:39:41Z</time>
      </trkpt>
      <trkpt lat="51.204614207606" lon="4.475396901115">
        <ele>0</ele>
        <time>2020-06-07T13:40:08Z</time>
      </trkpt>
      <trkpt lat="51.204088997752" lon="4.475190957832">
        <ele>0</ele>
        <time>2020-06-07T13:40:26Z</time>
      </trkpt>
      <trkpt lat="51.203545934451" lon="4.474965903817">
        <ele>0.2</ele>
        <time>2020-06-07T13:40:47Z</time>
      </trkpt>
      <trkpt lat="51.203003625521" lon="4.474785776786">
        <ele>0.4</ele>
        <time>2020-06-07T13:41:06Z</time>
      </trkpt>
      <trkpt lat="51.20278494175" lon="4.474721906708">
        <ele>3.8</ele>
        <time>2020-06-07T13:41:15Z</time>
      </trkpt>
      <trkpt lat="51.202460897496" lon="4.475398828952">
        <ele>8.2</ele>
        <time>2020-06-07T13:41:33Z</time>
      </trkpt>
      <trkpt lat="51.201923366249" lon="4.475307801518">
        <ele>2</ele>
        <time>2020-06-07T13:41:51Z</time>
      </trkpt>
      <trkpt lat="51.201377536921" lon="4.475189868185">
        <ele>0</ele>
        <time>2020-06-07T13:42:11Z</time>
      </trkpt>
      <trkpt lat="51.200821816951" lon="4.475166985598">
        <ele>0</ele>
        <time>2020-06-07T13:42:32Z</time>
      </trkpt>
      <trkpt lat="51.20026785718" lon="4.475159693345">
        <ele>0</ele>
        <time>2020-06-07T13:42:52Z</time>
      </trkpt>
      <trkpt lat="51.199706856613" lon="4.475176792421">
        <ele>0</ele>
        <time>2020-06-07T13:43:12Z</time>
      </trkpt>
      <trkpt lat="51.199161027285" lon="4.475180312819">
        <ele>0</ele>
        <time>2020-06-07T13:43:33Z</time>
      </trkpt>
      <trkpt lat="51.198622657848" lon="4.475028348972">
        <ele>0.2</ele>
        <time>2020-06-07T13:43:52Z</time>
      </trkpt>
      <trkpt lat="51.197992758063" lon="4.47465971301">
        <ele>1.6</ele>
        <time>2020-06-07T13:44:15Z</time>
      </trkpt>
      <trkpt lat="51.197510798813" lon="4.474241037105">
        <ele>0.8</ele>
        <time>2020-06-07T13:44:33Z</time>
      </trkpt>
      <trkpt lat="51.197434691161" lon="4.474199798157">
        <ele>0.8</ele>
        <time>2020-06-07T13:44:37Z</time>
      </trkpt>
      <trkpt lat="51.19736269064" lon="4.474214382663">
        <ele>1.8</ele>
        <time>2020-06-07T13:44:47Z</time>
      </trkpt>
      <trkpt lat="51.197349111962" lon="4.474239696001">
        <ele>2</ele>
        <time>2020-06-07T13:44:49Z</time>
      </trkpt>
      <trkpt lat="51.197159178108" lon="4.475095068896">
        <ele>14.8</ele>
        <time>2020-06-07T13:45:10Z</time>
      </trkpt>
      <trkpt lat="51.196928340582" lon="4.475876094338">
        <ele>11.4</ele>
        <time>2020-06-07T13:45:26Z</time>
      </trkpt>
      <trkpt lat="51.196733377588" lon="4.476723839704">
        <ele>12.6</ele>
        <time>2020-06-07T13:45:42Z</time>
      </trkpt>
      <trkpt lat="51.196518298034" lon="4.47752632281">
        <ele>5.8</ele>
        <time>2020-06-07T13:45:58Z</time>
      </trkpt>
      <trkpt lat="51.196338590098" lon="4.478340540576">
        <ele>2.8</ele>
        <time>2020-06-07T13:46:14Z</time>
      </trkpt>
      <trkpt lat="51.196175729781" lon="4.479196164928">
        <ele>4.2</ele>
        <time>2020-06-07T13:46:30Z</time>
      </trkpt>
      <trkpt lat="51.195953022698" lon="4.479981800415">
        <ele>6.2</ele>
        <time>2020-06-07T13:46:46Z</time>
      </trkpt>
      <trkpt lat="51.195838106849" lon="4.479931257558">
        <ele>0</ele>
        <time>2020-06-07T13:47:26Z</time>
      </trkpt>
      <trkpt lat="51.195350950821" lon="4.479511911101">
        <ele>0</ele>
        <time>2020-06-07T13:47:43Z</time>
      </trkpt>
      <trkpt lat="51.194863459517" lon="4.479126930434">
        <ele>0</ele>
        <time>2020-06-07T13:48:01Z</time>
      </trkpt>
      <trkpt lat="51.194852982142" lon="4.479141095845">
        <ele>0.2</ele>
        <time>2020-06-07T13:48:13Z</time>
      </trkpt>
      <trkpt lat="51.194863962431" lon="4.479213850737">
        <ele>0</ele>
        <time>2020-06-07T13:48:19Z</time>
      </trkpt>
      <trkpt lat="51.194867818105" lon="4.479479808424">
        <ele>0</ele>
        <time>2020-06-07T13:48:27Z</time>
      </trkpt>
      <trkpt lat="51.19535774016" lon="4.479865543462">
        <ele>0</ele>
        <time>2020-06-07T13:48:41Z</time>
      </trkpt>
      <trkpt lat="51.195862833454" lon="4.480278687313">
        <ele>0</ele>
        <time>2020-06-07T13:48:56Z</time>
      </trkpt>
      <trkpt lat="51.195906419334" lon="4.481007996432">
        <ele>0</ele>
        <time>2020-06-07T13:49:14Z</time>
      </trkpt>
      <trkpt lat="51.195876998865" lon="4.481278731802">
        <ele>1.8</ele>
        <time>2020-06-07T13:49:23Z</time>
      </trkpt>
      <trkpt lat="51.195769710545" lon="4.481828081528">
        <ele>3.8</ele>
        <time>2020-06-07T13:49:35Z</time>
      </trkpt>
      <trkpt lat="51.195578267949" lon="4.482468626326">
        <ele>2.6</ele>
        <time>2020-06-07T13:49:47Z</time>
      </trkpt>
      <trkpt lat="51.195021206875" lon="4.482335689392">
        <ele>1.4</ele>
        <time>2020-06-07T13:50:04Z</time>
      </trkpt>
      <trkpt lat="51.194759440138" lon="4.482203255372">
        <ele>0.2</ele>
        <time>2020-06-07T13:50:12Z</time>
      </trkpt>
      <trkpt lat="51.194696156793" lon="4.482053722276">
        <ele>3.2</ele>
        <time>2020-06-07T13:50:27Z</time>
      </trkpt>
      <trkpt lat="51.194151165655" lon="4.481901926067">
        <ele>1.6</ele>
        <time>2020-06-07T13:50:47Z</time>
      </trkpt>
      <trkpt lat="51.193643222515" lon="4.482322948904">
        <ele>1</ele>
        <time>2020-06-07T13:51:03Z</time>
      </trkpt>
      <trkpt lat="51.193172075916" lon="4.482626541322">
        <ele>0</ele>
        <time>2020-06-07T13:51:22Z</time>
      </trkpt>
      <trkpt lat="51.193179787264" lon="4.482661996759">
        <ele>0</ele>
        <time>2020-06-07T13:51:23Z</time>
      </trkpt>
      <trkpt lat="51.193304426117" lon="4.483500186759">
        <ele>0</ele>
        <time>2020-06-07T13:51:40Z</time>
      </trkpt>
      <trkpt lat="51.193139135049" lon="4.484347429211">
        <ele>0.2</ele>
        <time>2020-06-07T13:52:02Z</time>
      </trkpt>
      <trkpt lat="51.193004437916" lon="4.485189558704">
        <ele>0</ele>
        <time>2020-06-07T13:52:19Z</time>
      </trkpt>
      <trkpt lat="51.193129160588" lon="4.485731280901">
        <ele>0</ele>
        <time>2020-06-07T13:52:32Z</time>
      </trkpt>
      <trkpt lat="51.192584840002" lon="4.485727844322">
        <ele>0</ele>
        <time>2020-06-07T13:52:54Z</time>
      </trkpt>
      <trkpt lat="51.192044123633" lon="4.485664393339">
        <ele>1.6</ele>
        <time>2020-06-07T13:53:16Z</time>
      </trkpt>
      <trkpt lat="51.191505754196" lon="4.485532462233">
        <ele>0.2</ele>
        <time>2020-06-07T13:53:37Z</time>
      </trkpt>
      <trkpt lat="51.190977275401" lon="4.485524080333">
        <ele>2.2</ele>
        <time>2020-06-07T13:53:57Z</time>
      </trkpt>
      <trkpt lat="51.190730428446" lon="4.486207372821">
        <ele>2.6</ele>
        <time>2020-06-07T13:54:14Z</time>
      </trkpt>
      <trkpt lat="51.19017772596" lon="4.486121542165">
        <ele>0.8</ele>
        <time>2020-06-07T13:54:36Z</time>
      </trkpt>
      <trkpt lat="51.189629214424" lon="4.486065383435">
        <ele>0</ele>
        <time>2020-06-07T13:54:56Z</time>
      </trkpt>
      <trkpt lat="51.189080283793" lon="4.486059851381">
        <ele>0</ele>
        <time>2020-06-07T13:55:17Z</time>
      </trkpt>
      <trkpt lat="51.188670995616" lon="4.485587363678">
        <ele>2.8</ele>
        <time>2020-06-07T13:55:37Z</time>
      </trkpt>
      <trkpt lat="51.188216193722" lon="4.485322747095">
        <ele>0</ele>
        <time>2020-06-07T13:55:56Z</time>
      </trkpt>
      <trkpt lat="51.1877100946" lon="4.485317047403">
        <ele>1</ele>
        <time>2020-06-07T13:56:14Z</time>
      </trkpt>
      <trkpt lat="51.187693833714" lon="4.485354011582">
        <ele>0.8</ele>
        <time>2020-06-07T13:56:16Z</time>
      </trkpt>
      <trkpt lat="51.187646475979" lon="4.485450822527">
        <ele>0</ele>
        <time>2020-06-07T13:56:20Z</time>
      </trkpt>
      <trkpt lat="51.187616720234" lon="4.485435148374">
        <ele>0</ele>
        <time>2020-06-07T13:56:22Z</time>
      </trkpt>
      <trkpt lat="51.187643290857" lon="4.48524353814">
        <ele>0</ele>
        <time>2020-06-07T13:56:30Z</time>
      </trkpt>
      <trkpt lat="51.187630885645" lon="4.485168771592">
        <ele>0</ele>
        <time>2020-06-07T13:56:35Z</time>
      </trkpt>
      <trkpt lat="51.187605153212" lon="4.485186708858">
        <ele>0</ele>
        <time>2020-06-07T13:56:39Z</time>
      </trkpt>
      <trkpt lat="51.187604734117" lon="4.485194252568">
        <ele>0</ele>
        <time>2020-06-07T13:56:47Z</time>
      </trkpt>
      <trkpt lat="51.18756257316" lon="4.485219565906">
        <ele>0</ele>
        <time>2020-06-07T13:56:53Z</time>
      </trkpt>
      <trkpt lat="51.187031831252" lon="4.485290812056">
        <ele>4.6</ele>
        <time>2020-06-07T13:57:18Z</time>
      </trkpt>
      <trkpt lat="51.186518691334" lon="4.485018735582">
        <ele>2</ele>
        <time>2020-06-07T13:57:35Z</time>
      </trkpt>
      <trkpt lat="51.186069505313" lon="4.484523952025">
        <ele>1</ele>
        <time>2020-06-07T13:57:50Z</time>
      </trkpt>
      <trkpt lat="51.185544966011" lon="4.484525376948">
        <ele>3.8</ele>
        <time>2020-06-07T13:58:07Z</time>
      </trkpt>
      <trkpt lat="51.185002489443" lon="4.484613889812">
        <ele>3.6</ele>
        <time>2020-06-07T13:58:24Z</time>
      </trkpt>
      <trkpt lat="51.184496977054" lon="4.484311219403">
        <ele>3</ele>
        <time>2020-06-07T13:58:40Z</time>
      </trkpt>
      <trkpt lat="51.184303103707" lon="4.484231926629">
        <ele>4.2</ele>
        <time>2020-06-07T13:58:49Z</time>
      </trkpt>
      <trkpt lat="51.18427100103" lon="4.48511361869">
        <ele>4</ele>
        <time>2020-06-07T13:59:10Z</time>
      </trkpt>
      <trkpt lat="51.184252812307" lon="4.485177153492">
        <ele>4.4</ele>
        <time>2020-06-07T13:59:12Z</time>
      </trkpt>
      <trkpt lat="51.184223978571" lon="4.485185116297">
        <ele>5</ele>
        <time>2020-06-07T13:59:14Z</time>
      </trkpt>
      <trkpt lat="51.183679909442" lon="4.485106745532">
        <ele>5.6</ele>
        <time>2020-06-07T13:59:40Z</time>
      </trkpt>
      <trkpt lat="51.183490143226" lon="4.485126610635">
        <ele>3.4</ele>
        <time>2020-06-07T13:59:52Z</time>
      </trkpt>
      <trkpt lat="51.183482348059" lon="4.485104230962">
        <ele>3.4</ele>
        <time>2020-06-07T14:00:02Z</time>
      </trkpt>
      <trkpt lat="51.1834437075" lon="4.485123341694">
        <ele>2.8</ele>
        <time>2020-06-07T14:00:05Z</time>
      </trkpt>
      <trkpt lat="51.182902823493" lon="4.485276311369">
        <ele>1.8</ele>
        <time>2020-06-07T14:00:26Z</time>
      </trkpt>
      <trkpt lat="51.182376272535" lon="4.485395585806">
        <ele>2.4</ele>
        <time>2020-06-07T14:00:53Z</time>
      </trkpt>
      <trkpt lat="51.181833376872" lon="4.485444368464">
        <ele>3</ele>
        <time>2020-06-07T14:01:12Z</time>
      </trkpt>
      <trkpt lat="51.18128536825" lon="4.485462138092">
        <ele>3</ele>
        <time>2020-06-07T14:01:31Z</time>
      </trkpt>
      <trkpt lat="51.180728977728" lon="4.485499102271">
        <ele>0.2</ele>
        <time>2020-06-07T14:01:49Z</time>
      </trkpt>
      <trkpt lat="51.180565698316" lon="4.485551237689">
        <ele>0</ele>
        <time>2020-06-07T14:01:56Z</time>
      </trkpt>
      <trkpt lat="51.180669633876" lon="4.486026072324">
        <ele>0.8</ele>
        <time>2020-06-07T14:02:11Z</time>
      </trkpt>
      <trkpt lat="51.180722188389" lon="4.486087846927">
        <ele>4.2</ele>
        <time>2020-06-07T14:04:15Z</time>
      </trkpt>
      <trkpt lat="51.180715063774" lon="4.486074519706">
        <ele>4</ele>
        <time>2020-06-07T14:04:24Z</time>
      </trkpt>
      <trkpt lat="51.180673908645" lon="4.486051385662">
        <ele>4.8</ele>
        <time>2020-06-07T14:04:28Z</time>
      </trkpt>
      <trkpt lat="51.180668292772" lon="4.486102012338">
        <ele>4.8</ele>
        <time>2020-06-07T14:04:30Z</time>
      </trkpt>
      <trkpt lat="51.180853784219" lon="4.486742557136">
        <ele>3</ele>
        <time>2020-06-07T14:04:43Z</time>
      </trkpt>
      <trkpt lat="51.18081765823" lon="4.486810366707">
        <ele>2.4</ele>
        <time>2020-06-07T14:04:45Z</time>
      </trkpt>
      <trkpt lat="51.18027954025" lon="4.48695763669">
        <ele>1</ele>
        <time>2020-06-07T14:05:01Z</time>
      </trkpt>
      <trkpt lat="51.179722311538" lon="4.487107505062">
        <ele>1.8</ele>
        <time>2020-06-07T14:05:18Z</time>
      </trkpt>
      <trkpt lat="51.179162652075" lon="4.487251087009">
        <ele>0.4</ele>
        <time>2020-06-07T14:05:36Z</time>
      </trkpt>
      <trkpt lat="51.178615397824" lon="4.487414198783">
        <ele>1.6</ele>
        <time>2020-06-07T14:05:52Z</time>
      </trkpt>
      <trkpt lat="51.178078956224" lon="4.487536993618">
        <ele>2</ele>
        <time>2020-06-07T14:06:10Z</time>
      </trkpt>
      <trkpt lat="51.177538910407" lon="4.487677390443">
        <ele>4</ele>
        <time>2020-06-07T14:06:27Z</time>
      </trkpt>
      <trkpt lat="51.177007330309" lon="4.487844190253">
        <ele>5</ele>
        <time>2020-06-07T14:06:43Z</time>
      </trkpt>
      <trkpt lat="51.176451610339" lon="4.487942845216">
        <ele>4.2</ele>
        <time>2020-06-07T14:07:00Z</time>
      </trkpt>
      <trkpt lat="51.176334682834" lon="4.488038650333">
        <ele>6.2</ele>
        <time>2020-06-07T14:07:16Z</time>
      </trkpt>
      <trkpt lat="51.176565939455" lon="4.488810958599">
        <ele>4.6</ele>
        <time>2020-06-07T14:07:32Z</time>
      </trkpt>
      <trkpt lat="51.176786048149" lon="4.489605395081">
        <ele>7.8</ele>
        <time>2020-06-07T14:07:47Z</time>
      </trkpt>
      <trkpt lat="51.176913872124" lon="4.490486751866">
        <ele>8.4</ele>
        <time>2020-06-07T14:08:04Z</time>
      </trkpt>
      <trkpt lat="51.176966342818" lon="4.491369785031">
        <ele>9.8</ele>
        <time>2020-06-07T14:08:20Z</time>
      </trkpt>
      <trkpt lat="51.176971623415" lon="4.49227679043">
        <ele>6.8</ele>
        <time>2020-06-07T14:08:36Z</time>
      </trkpt>
      <trkpt lat="51.17674321664" lon="4.493010961051">
        <ele>2</ele>
        <time>2020-06-07T14:08:53Z</time>
      </trkpt>
      <trkpt lat="51.176195627113" lon="4.492956478701">
        <ele>3.2</ele>
        <time>2020-06-07T14:09:13Z</time>
      </trkpt>
      <trkpt lat="51.175630603234" lon="4.492939714901">
        <ele>2.8</ele>
        <time>2020-06-07T14:09:35Z</time>
      </trkpt>
      <trkpt lat="51.175081169689" lon="4.493065862496">
        <ele>3</ele>
        <time>2020-06-07T14:09:55Z</time>
      </trkpt>
      <trkpt lat="51.17452117495" lon="4.493065611039">
        <ele>6.8</ele>
        <time>2020-06-07T14:10:17Z</time>
      </trkpt>
      <trkpt lat="51.173966879903" lon="4.493035268561">
        <ele>6.2</ele>
        <time>2020-06-07T14:10:38Z</time>
      </trkpt>
      <trkpt lat="51.173433455787" lon="4.493132750058">
        <ele>4.8</ele>
        <time>2020-06-07T14:11:00Z</time>
      </trkpt>
      <trkpt lat="51.172958118238" lon="4.4935868814">
        <ele>4.8</ele>
        <time>2020-06-07T14:11:25Z</time>
      </trkpt>
      <trkpt lat="51.172494766806" lon="4.494030116272">
        <ele>6.6</ele>
        <time>2020-06-07T14:11:50Z</time>
      </trkpt>
      <trkpt lat="51.172029906632" lon="4.494488187107">
        <ele>3.6</ele>
        <time>2020-06-07T14:12:18Z</time>
      </trkpt>
      <trkpt lat="51.171939885026" lon="4.494602935318">
        <ele>3</ele>
        <time>2020-06-07T14:12:28Z</time>
      </trkpt>
      <trkpt lat="51.171915745154" lon="4.494623135697">
        <ele>4.2</ele>
        <time>2020-06-07T14:12:35Z</time>
      </trkpt>
      <trkpt lat="51.17189261111" lon="4.494644090447">
        <ele>3.8</ele>
        <time>2020-06-07T14:12:37Z</time>
      </trkpt>
      <trkpt lat="51.171396151173" lon="4.495032423874">
        <ele>4.4</ele>
        <time>2020-06-07T14:12:59Z</time>
      </trkpt>
      <trkpt lat="51.170884352359" lon="4.495380440362">
        <ele>5.2</ele>
        <time>2020-06-07T14:13:24Z</time>
      </trkpt>
      <trkpt lat="51.170381857454" lon="4.495758296414">
        <ele>5.6</ele>
        <time>2020-06-07T14:13:49Z</time>
      </trkpt>
      <trkpt lat="51.169909788846" lon="4.49615509556">
        <ele>9.8</ele>
        <time>2020-06-07T14:14:14Z</time>
      </trkpt>
      <trkpt lat="51.170042893418" lon="4.497057742371">
        <ele>14.2</ele>
        <time>2020-06-07T14:14:35Z</time>
      </trkpt>
      <trkpt lat="51.169501003583" lon="4.497088923039">
        <ele>8.8</ele>
        <time>2020-06-07T14:14:57Z</time>
      </trkpt>
      <trkpt lat="51.169010746252" lon="4.497140387905">
        <ele>7.2</ele>
        <time>2020-06-07T14:15:15Z</time>
      </trkpt>
      <trkpt lat="51.16886003969" lon="4.497134520575">
        <ele>5.8</ele>
        <time>2020-06-07T14:15:22Z</time>
      </trkpt>
      <trkpt lat="51.168681002306" lon="4.497050617756">
        <ele>4.8</ele>
        <time>2020-06-07T14:15:31Z</time>
      </trkpt>
      <trkpt lat="51.168165683094" lon="4.496807710294">
        <ele>4.2</ele>
        <time>2020-06-07T14:15:52Z</time>
      </trkpt>
      <trkpt lat="51.167643574543" lon="4.496498502003">
        <ele>8</ele>
        <time>2020-06-07T14:16:14Z</time>
      </trkpt>
      <trkpt lat="51.167156167058" lon="4.496126932376">
        <ele>6</ele>
        <time>2020-06-07T14:16:30Z</time>
      </trkpt>
      <trkpt lat="51.166698599137" lon="4.496015620744">
        <ele>9.8</ele>
        <time>2020-06-07T14:16:53Z</time>
      </trkpt>
      <trkpt lat="51.16646868362" lon="4.496216031973">
        <ele>10.6</ele>
        <time>2020-06-07T14:17:04Z</time>
      </trkpt>
      <trkpt lat="51.166459631168" lon="4.496210667557">
        <ele>10.8</ele>
        <time>2020-06-07T14:17:08Z</time>
      </trkpt>
      <trkpt lat="51.166463570661" lon="4.49620371058">
        <ele>11.2</ele>
        <time>2020-06-07T14:17:27Z</time>
      </trkpt>
      <trkpt lat="51.166461475186" lon="4.496159454148">
        <ele>11.2</ele>
        <time>2020-06-07T14:17:29Z</time>
      </trkpt>
      <trkpt lat="51.166372543227" lon="4.495323108166">
        <ele>13.6</ele>
        <time>2020-06-07T14:17:48Z</time>
      </trkpt>
      <trkpt lat="51.16648293285" lon="4.494495814636">
        <ele>10.8</ele>
        <time>2020-06-07T14:18:11Z</time>
      </trkpt>
      <trkpt lat="51.16641755403" lon="4.494484834347">
        <ele>12.6</ele>
        <time>2020-06-07T14:18:14Z</time>
      </trkpt>
      <trkpt lat="51.166299955973" lon="4.49532696384">
        <ele>17.4</ele>
        <time>2020-06-07T14:18:33Z</time>
      </trkpt>
      <trkpt lat="51.166196188051" lon="4.495913110107">
        <ele>16.8</ele>
        <time>2020-06-07T14:18:48Z</time>
      </trkpt>
      <trkpt lat="51.166159056234" lon="4.495795176774">
        <ele>14.8</ele>
        <time>2020-06-07T14:18:57Z</time>
      </trkpt>
      <trkpt lat="51.165644910488" lon="4.49581143766">
        <ele>7.6</ele>
        <time>2020-06-07T14:19:23Z</time>
      </trkpt>
      <trkpt lat="51.165547261353" lon="4.495856532282">
        <ele>17.4</ele>
        <time>2020-06-07T14:21:46Z</time>
      </trkpt>
      <trkpt lat="51.165506357681" lon="4.495853430979">
        <ele>16.4</ele>
        <time>2020-06-07T14:21:51Z</time>
      </trkpt>
      <trkpt lat="51.165491186442" lon="4.495880085421">
        <ele>16.8</ele>
        <time>2020-06-07T14:22:00Z</time>
      </trkpt>
      <trkpt lat="51.165456820652" lon="4.495908416243">
        <ele>20.2</ele>
        <time>2020-06-07T14:22:06Z</time>
      </trkpt>
      <trkpt lat="51.165304605348" lon="4.495894837565">
        <ele>20.6</ele>
        <time>2020-06-07T14:22:14Z</time>
      </trkpt>
      <trkpt lat="51.165141996488" lon="4.495722840977">
        <ele>22.4</ele>
        <time>2020-06-07T14:22:23Z</time>
      </trkpt>
      <trkpt lat="51.164597675902" lon="4.495771539816">
        <ele>34</ele>
        <time>2020-06-07T14:22:42Z</time>
      </trkpt>
      <trkpt lat="51.164043967588" lon="4.495951583028">
        <ele>44.8</ele>
        <time>2020-06-07T14:22:57Z</time>
      </trkpt>
      <trkpt lat="51.16351909301" lon="4.496143612357">
        <ele>22</ele>
        <time>2020-06-07T14:23:10Z</time>
      </trkpt>
      <trkpt lat="51.163366039516" lon="4.496097931002">
        <ele>24.2</ele>
        <time>2020-06-07T14:23:16Z</time>
      </trkpt>
      <trkpt lat="51.163327650414" lon="4.495915540858">
        <ele>23.6</ele>
        <time>2020-06-07T14:23:31Z</time>
      </trkpt>
      <trkpt lat="51.163363357308" lon="4.495874218091">
        <ele>17.2</ele>
        <time>2020-06-07T14:24:03Z</time>
      </trkpt>
      <trkpt lat="51.163365368964" lon="4.495860304137">
        <ele>17.2</ele>
        <time>2020-06-07T14:24:07Z</time>
      </trkpt>
      <trkpt lat="51.163166047382" lon="4.495021778861">
        <ele>18.4</ele>
        <time>2020-06-07T14:24:28Z</time>
      </trkpt>
      <trkpt lat="51.162972509311" lon="4.494181409567">
        <ele>15.8</ele>
        <time>2020-06-07T14:24:44Z</time>
      </trkpt>
      <trkpt lat="51.162879973135" lon="4.493802631506">
        <ele>14.6</ele>
        <time>2020-06-07T14:25:12Z</time>
      </trkpt>
      <trkpt lat="51.163064877849" lon="4.494653478175">
        <ele>20.6</ele>
        <time>2020-06-07T14:25:28Z</time>
      </trkpt>
      <trkpt lat="51.163047862592" lon="4.495049271493">
        <ele>18.6</ele>
        <time>2020-06-07T14:25:38Z</time>
      </trkpt>
      <trkpt lat="51.163014921725" lon="4.495050444959">
        <ele>18.6</ele>
        <time>2020-06-07T14:25:42Z</time>
      </trkpt>
      <trkpt lat="51.16303126643" lon="4.495072489356">
        <ele>20.4</ele>
        <time>2020-06-07T14:26:59Z</time>
      </trkpt>
      <trkpt lat="51.163048952239" lon="4.495065951474">
        <ele>21.6</ele>
        <time>2020-06-07T14:27:00Z</time>
      </trkpt>
      <trkpt lat="51.163070074627" lon="4.49501599535">
        <ele>22.4</ele>
        <time>2020-06-07T14:27:02Z</time>
      </trkpt>
      <trkpt lat="51.163144505899" lon="4.494742158677">
        <ele>21.4</ele>
        <time>2020-06-07T14:27:11Z</time>
      </trkpt>
      <trkpt lat="51.163161018242" lon="4.494745595256">
        <ele>19.8</ele>
        <time>2020-06-07T14:27:13Z</time>
      </trkpt>
      <trkpt lat="51.163152301066" lon="4.494783146168">
        <ele>18</ele>
        <time>2020-06-07T14:27:15Z</time>
      </trkpt>
      <trkpt lat="51.163135621085" lon="4.494784571091">
        <ele>18.2</ele>
        <time>2020-06-07T14:27:21Z</time>
      </trkpt>
      <trkpt lat="51.163131178678" lon="4.494710139819">
        <ele>18.8</ele>
        <time>2020-06-07T14:27:26Z</time>
      </trkpt>
      <trkpt lat="51.162921798816" lon="4.493906734704">
        <ele>19</ele>
        <time>2020-06-07T14:27:44Z</time>
      </trkpt>
      <trkpt lat="51.162688949634" lon="4.493119422837">
        <ele>13.4</ele>
        <time>2020-06-07T14:28:01Z</time>
      </trkpt>
      <trkpt lat="51.162511169535" lon="4.492306210899">
        <ele>13.2</ele>
        <time>2020-06-07T14:28:18Z</time>
      </trkpt>
      <trkpt lat="51.162363396638" lon="4.491485203794">
        <ele>14.4</ele>
        <time>2020-06-07T14:28:34Z</time>
      </trkpt>
      <trkpt lat="51.162180671218" lon="4.490668890553">
        <ele>12.2</ele>
        <time>2020-06-07T14:28:50Z</time>
      </trkpt>
      <trkpt lat="51.161862326656" lon="4.489961290555">
        <ele>13.6</ele>
        <time>2020-06-07T14:29:07Z</time>
      </trkpt>
      <trkpt lat="51.161851346367" lon="4.489284368311">
        <ele>12.6</ele>
        <time>2020-06-07T14:29:28Z</time>
      </trkpt>
      <trkpt lat="51.16230958484" lon="4.488812718798">
        <ele>12.8</ele>
        <time>2020-06-07T14:29:47Z</time>
      </trkpt>
      <trkpt lat="51.162773606824" lon="4.488351462841">
        <ele>13.2</ele>
        <time>2020-06-07T14:30:09Z</time>
      </trkpt>
      <trkpt lat="51.163255649893" lon="4.487907138322">
        <ele>17.6</ele>
        <time>2020-06-07T14:30:29Z</time>
      </trkpt>
      <trkpt lat="51.163597212318" lon="4.487453677532">
        <ele>22.4</ele>
        <time>2020-06-07T14:30:47Z</time>
      </trkpt>
      <trkpt lat="51.163655969437" lon="4.487473542635">
        <ele>30.2</ele>
        <time>2020-06-07T14:34:38Z</time>
      </trkpt>
      <trkpt lat="51.164113956453" lon="4.486959396889">
        <ele>14.2</ele>
        <time>2020-06-07T14:34:55Z</time>
      </trkpt>
      <trkpt lat="51.164620893765" lon="4.486589084547">
        <ele>12.6</ele>
        <time>2020-06-07T14:35:12Z</time>
      </trkpt>
      <trkpt lat="51.16515523989" lon="4.486276020582">
        <ele>12.6</ele>
        <time>2020-06-07T14:35:27Z</time>
      </trkpt>
      <trkpt lat="51.165660081727" lon="4.485964716816">
        <ele>12.2</ele>
        <time>2020-06-07T14:35:43Z</time>
      </trkpt>
      <trkpt lat="51.165955376064" lon="4.485840916153">
        <ele>12.8</ele>
        <time>2020-06-07T14:35:53Z</time>
      </trkpt>
      <trkpt lat="51.166477568434" lon="4.485560457779">
        <ele>12.8</ele>
        <time>2020-06-07T14:36:11Z</time>
      </trkpt>
      <trkpt lat="51.16701099255" lon="4.48529382954">
        <ele>9</ele>
        <time>2020-06-07T14:36:28Z</time>
      </trkpt>
      <trkpt lat="51.167529580703" lon="4.485051508811">
        <ele>14.4</ele>
        <time>2020-06-07T14:36:50Z</time>
      </trkpt>
      <trkpt lat="51.16758766727" lon="4.484978251005">
        <ele>14.4</ele>
        <time>2020-06-07T14:36:53Z</time>
      </trkpt>
      <trkpt lat="51.16808639032" lon="4.484623948092">
        <ele>15.6</ele>
        <time>2020-06-07T14:37:10Z</time>
      </trkpt>
      <trkpt lat="51.16861947916" lon="4.48434751303">
        <ele>15.8</ele>
        <time>2020-06-07T14:37:26Z</time>
      </trkpt>
      <trkpt lat="51.169103450066" lon="4.48395021097">
        <ele>16.6</ele>
        <time>2020-06-07T14:37:43Z</time>
      </trkpt>
      <trkpt lat="51.169421878447" lon="4.48322601481">
        <ele>15</ele>
        <time>2020-06-07T14:38:01Z</time>
      </trkpt>
      <trkpt lat="51.169788335115" lon="4.482589744781">
        <ele>19.8</ele>
        <time>2020-06-07T14:38:32Z</time>
      </trkpt>
      <trkpt lat="51.169837117773" lon="4.48255462462">
        <ele>19.6</ele>
        <time>2020-06-07T14:38:37Z</time>
      </trkpt>
      <trkpt lat="51.170214890006" lon="4.481923719007">
        <ele>17</ele>
        <time>2020-06-07T14:39:05Z</time>
      </trkpt>
      <trkpt lat="51.170739177851" lon="4.481754572265">
        <ele>15.6</ele>
        <time>2020-06-07T14:39:35Z</time>
      </trkpt>
      <trkpt lat="51.171070514358" lon="4.481805198941">
        <ele>15.6</ele>
        <time>2020-06-07T14:39:43Z</time>
      </trkpt>
      <trkpt lat="51.171587677588" lon="4.481824812587">
        <ele>13.6</ele>
        <time>2020-06-07T14:39:52Z</time>
      </trkpt>
      <trkpt lat="51.171895460956" lon="4.481662539003">
        <ele>14.4</ele>
        <time>2020-06-07T14:39:57Z</time>
      </trkpt>
      <trkpt lat="51.172001491991" lon="4.481551059733">
        <ele>14.8</ele>
        <time>2020-06-07T14:39:59Z</time>
      </trkpt>
      <trkpt lat="51.172085478629" lon="4.481398592972">
        <ele>14.8</ele>
        <time>2020-06-07T14:40:01Z</time>
      </trkpt>
      <trkpt lat="51.17218849218" lon="4.480932224056">
        <ele>14.6</ele>
        <time>2020-06-07T14:40:06Z</time>
      </trkpt>
      <trkpt lat="51.172204920704" lon="4.480014657463">
        <ele>15</ele>
        <time>2020-06-07T14:40:16Z</time>
      </trkpt>
      <trkpt lat="51.172214056975" lon="4.479934945594">
        <ele>14.6</ele>
        <time>2020-06-07T14:40:17Z</time>
      </trkpt>
      <trkpt lat="51.172241884883" lon="4.479785412498">
        <ele>13.8</ele>
        <time>2020-06-07T14:40:19Z</time>
      </trkpt>
      <trkpt lat="51.172302905115" lon="4.479592377341">
        <ele>13.2</ele>
        <time>2020-06-07T14:40:22Z</time>
      </trkpt>
      <trkpt lat="51.172689897438" lon="4.478977984071">
        <ele>12.2</ele>
        <time>2020-06-07T14:40:37Z</time>
      </trkpt>
      <trkpt lat="51.173099939986" lon="4.478402901912">
        <ele>12.2</ele>
        <time>2020-06-07T14:40:56Z</time>
      </trkpt>
      <trkpt lat="51.173489698336" lon="4.477770319919">
        <ele>10.8</ele>
        <time>2020-06-07T14:41:15Z</time>
      </trkpt>
      <trkpt lat="51.173900495255" lon="4.477193058466">
        <ele>9.4</ele>
        <time>2020-06-07T14:41:32Z</time>
      </trkpt>
      <trkpt lat="51.174335599684" lon="4.476645888034">
        <ele>7.6</ele>
        <time>2020-06-07T14:41:49Z</time>
      </trkpt>
      <trkpt lat="51.174680514869" lon="4.477079064626">
        <ele>7.6</ele>
        <time>2020-06-07T14:42:06Z</time>
      </trkpt>
      <trkpt lat="51.174920321028" lon="4.477915326789">
        <ele>8</ele>
        <time>2020-06-07T14:42:21Z</time>
      </trkpt>
      <trkpt lat="51.175125845216" lon="4.478309695184">
        <ele>7.8</ele>
        <time>2020-06-07T14:42:30Z</time>
      </trkpt>
      <trkpt lat="51.175184099421" lon="4.478264013829">
        <ele>7.8</ele>
        <time>2020-06-07T14:42:32Z</time>
      </trkpt>
      <trkpt lat="51.175456511171" lon="4.477519952566">
        <ele>5.8</ele>
        <time>2020-06-07T14:42:47Z</time>
      </trkpt>
      <trkpt lat="51.175778543769" lon="4.476778992606">
        <ele>5.2</ele>
        <time>2020-06-07T14:43:05Z</time>
      </trkpt>
      <trkpt lat="51.176181042607" lon="4.476199803316">
        <ele>4.8</ele>
        <time>2020-06-07T14:43:23Z</time>
      </trkpt>
      <trkpt lat="51.176680184752" lon="4.475868885904">
        <ele>5.4</ele>
        <time>2020-06-07T14:43:42Z</time>
      </trkpt>
      <trkpt lat="51.177193157032" lon="4.475490275481">
        <ele>4.2</ele>
        <time>2020-06-07T14:44:01Z</time>
      </trkpt>
      <trkpt lat="51.177705291122" lon="4.47519280185">
        <ele>5.2</ele>
        <time>2020-06-07T14:44:25Z</time>
      </trkpt>
      <trkpt lat="51.178229662786" lon="4.47484579119">
        <ele>5.8</ele>
        <time>2020-06-07T14:44:48Z</time>
      </trkpt>
      <trkpt lat="51.17872888875" lon="4.474512275389">
        <ele>5.4</ele>
        <time>2020-06-07T14:45:08Z</time>
      </trkpt>
      <trkpt lat="51.178820838193" lon="4.474488638431">
        <ele>4.4</ele>
        <time>2020-06-07T14:45:12Z</time>
      </trkpt>
      <trkpt lat="51.179167094482" lon="4.475168745797">
        <ele>5.2</ele>
        <time>2020-06-07T14:45:29Z</time>
      </trkpt>
      <trkpt lat="51.179507148165" lon="4.47583653177">
        <ele>6.6</ele>
        <time>2020-06-07T14:45:47Z</time>
      </trkpt>
      <trkpt lat="51.179859774698" lon="4.476529547262">
        <ele>7.6</ele>
        <time>2020-06-07T14:46:06Z</time>
      </trkpt>
      <trkpt lat="51.180115674105" lon="4.477036903669">
        <ele>5.8</ele>
        <time>2020-06-07T14:46:18Z</time>
      </trkpt>
      <trkpt lat="51.18023260161" lon="4.477273776163">
        <ele>5.2</ele>
        <time>2020-06-07T14:46:24Z</time>
      </trkpt>
      <trkpt lat="51.180606350531" lon="4.477949357303">
        <ele>6.8</ele>
        <time>2020-06-07T14:46:42Z</time>
      </trkpt>
      <trkpt lat="51.180963251833" lon="4.478639187673">
        <ele>4.6</ele>
        <time>2020-06-07T14:47:02Z</time>
      </trkpt>
      <trkpt lat="51.181304981896" lon="4.479326252016">
        <ele>5.4</ele>
        <time>2020-06-07T14:47:20Z</time>
      </trkpt>
      <trkpt lat="51.18165081909" lon="4.480001916975">
        <ele>7.6</ele>
        <time>2020-06-07T14:47:36Z</time>
      </trkpt>
      <trkpt lat="51.182000176682" lon="4.480693339906">
        <ele>6.6</ele>
        <time>2020-06-07T14:47:54Z</time>
      </trkpt>
      <trkpt lat="51.182202851024" lon="4.48109617402">
        <ele>5.6</ele>
        <time>2020-06-07T14:48:05Z</time>
      </trkpt>
      <trkpt lat="51.182668549388" lon="4.480688981318">
        <ele>5.4</ele>
        <time>2020-06-07T14:48:23Z</time>
      </trkpt>
      <trkpt lat="51.182764941238" lon="4.480637600271">
        <ele>5.8</ele>
        <time>2020-06-07T14:48:27Z</time>
      </trkpt>
      <trkpt lat="51.183200213305" lon="4.481168761274">
        <ele>5</ele>
        <time>2020-06-07T14:48:47Z</time>
      </trkpt>
      <trkpt lat="51.183634982458" lon="4.481686092142">
        <ele>3.2</ele>
        <time>2020-06-07T14:49:05Z</time>
      </trkpt>
      <trkpt lat="51.183857521903" lon="4.482495448406">
        <ele>3.2</ele>
        <time>2020-06-07T14:49:28Z</time>
      </trkpt>
      <trkpt lat="51.183865065613" lon="4.482791413295">
        <ele>3.4</ele>
        <time>2020-06-07T14:49:36Z</time>
      </trkpt>
      <trkpt lat="51.183861461396" lon="4.482736763307">
        <ele>3.6</ele>
        <time>2020-06-07T14:49:41Z</time>
      </trkpt>
      <trkpt lat="51.183858946826" lon="4.481887593018">
        <ele>5</ele>
        <time>2020-06-07T14:50:10Z</time>
      </trkpt>
      <trkpt lat="51.183914602642" lon="4.481680727726">
        <ele>4</ele>
        <time>2020-06-07T14:50:22Z</time>
      </trkpt>
      <trkpt lat="51.18532292948" lon="4.485198192061">
        <ele>9</ele>
        <time>2020-06-07T14:53:00Z</time>
      </trkpt>
      <trkpt lat="51.185884684418" lon="4.485229708005">
        <ele>4.8</ele>
        <time>2020-06-07T14:53:18Z</time>
      </trkpt>
      <trkpt lat="51.186447026089" lon="4.485314365195">
        <ele>4.4</ele>
        <time>2020-06-07T14:53:38Z</time>
      </trkpt>
      <trkpt lat="51.187007272285" lon="4.485466748137">
        <ele>0</ele>
        <time>2020-06-07T14:53:58Z</time>
      </trkpt>
      <trkpt lat="51.18732285082" lon="4.485544196893">
        <ele>0.8</ele>
        <time>2020-06-07T14:54:06Z</time>
      </trkpt>
      <trkpt lat="51.187332238548" lon="4.48561066536">
        <ele>1.4</ele>
        <time>2020-06-07T14:54:08Z</time>
      </trkpt>
      <trkpt lat="51.187312624902" lon="4.485541514685">
        <ele>2.2</ele>
        <time>2020-06-07T14:54:12Z</time>
      </trkpt>
      <trkpt lat="51.187333998747" lon="4.485523325962">
        <ele>2</ele>
        <time>2020-06-07T14:54:13Z</time>
      </trkpt>
      <trkpt lat="51.187894831676" lon="4.485527349274">
        <ele>3.6</ele>
        <time>2020-06-07T14:54:31Z</time>
      </trkpt>
      <trkpt lat="51.188441331556" lon="4.485579736149">
        <ele>0</ele>
        <time>2020-06-07T14:54:49Z</time>
      </trkpt>
      <trkpt lat="51.18887601689" lon="4.486036298242">
        <ele>0.2</ele>
        <time>2020-06-07T14:55:09Z</time>
      </trkpt>
      <trkpt lat="51.189248927621" lon="4.48666510838">
        <ele>1.6</ele>
        <time>2020-06-07T14:55:25Z</time>
      </trkpt>
      <trkpt lat="51.189653689572" lon="4.487265336239">
        <ele>4</ele>
        <time>2020-06-07T14:55:40Z</time>
      </trkpt>
      <trkpt lat="51.190094577512" lon="4.487747630765">
        <ele>5</ele>
        <time>2020-06-07T14:55:59Z</time>
      </trkpt>
      <trkpt lat="51.190480899283" lon="4.488381134767">
        <ele>6.6</ele>
        <time>2020-06-07T14:56:14Z</time>
      </trkpt>
      <trkpt lat="51.190855234937" lon="4.489079179399">
        <ele>11.6</ele>
        <time>2020-06-07T14:56:30Z</time>
      </trkpt>
      <trkpt lat="51.190997224323" lon="4.489271208728">
        <ele>11.6</ele>
        <time>2020-06-07T14:56:37Z</time>
      </trkpt>
      <trkpt lat="51.191518578503" lon="4.489015560778">
        <ele>5.8</ele>
        <time>2020-06-07T14:56:59Z</time>
      </trkpt>
      <trkpt lat="51.19203934595" lon="4.488865692406">
        <ele>0</ele>
        <time>2020-06-07T14:57:20Z</time>
      </trkpt>
      <trkpt lat="51.192122829674" lon="4.488889413183">
        <ele>0</ele>
        <time>2020-06-07T14:57:25Z</time>
      </trkpt>
      <trkpt lat="51.192221484637" lon="4.488239899752">
        <ele>7</ele>
        <time>2020-06-07T14:57:43Z</time>
      </trkpt>
      <trkpt lat="51.191785961113" lon="4.487733884449">
        <ele>11.4</ele>
        <time>2020-06-07T14:58:04Z</time>
      </trkpt>
      <trkpt lat="51.191566774428" lon="4.487285201342">
        <ele>7.2</ele>
        <time>2020-06-07T14:58:20Z</time>
      </trkpt>
      <trkpt lat="51.191865672982" lon="4.486564274123">
        <ele>3.6</ele>
        <time>2020-06-07T14:58:40Z</time>
      </trkpt>
      <trkpt lat="51.192051499705" lon="4.485956921649">
        <ele>3.6</ele>
        <time>2020-06-07T14:58:57Z</time>
      </trkpt>
      <trkpt lat="51.19179794723" lon="4.486709029536">
        <ele>2.2</ele>
        <time>2020-06-07T14:59:16Z</time>
      </trkpt>
      <trkpt lat="51.191596194897" lon="4.48719568265">
        <ele>1.2</ele>
        <time>2020-06-07T14:59:28Z</time>
      </trkpt>
      <trkpt lat="51.191078109658" lon="4.486900472132">
        <ele>2.2</ele>
        <time>2020-06-07T14:59:50Z</time>
      </trkpt>
      <trkpt lat="51.191093783811" lon="4.486016014044">
        <ele>3.8</ele>
        <time>2020-06-07T15:00:12Z</time>
      </trkpt>
      <trkpt lat="51.191133765474" lon="4.485419809497">
        <ele>3</ele>
        <time>2020-06-07T15:00:31Z</time>
      </trkpt>
      <trkpt lat="51.191181374666" lon="4.48542626356">
        <ele>3.2</ele>
        <time>2020-06-07T15:00:36Z</time>
      </trkpt>
      <trkpt lat="51.191716223705" lon="4.485547717291">
        <ele>1.8</ele>
        <time>2020-06-07T15:00:57Z</time>
      </trkpt>
      <trkpt lat="51.192278481557" lon="4.48566850047">
        <ele>0</ele>
        <time>2020-06-07T15:01:14Z</time>
      </trkpt>
      <trkpt lat="51.192847025834" lon="4.48570873359">
        <ele>0</ele>
        <time>2020-06-07T15:01:33Z</time>
      </trkpt>
      <trkpt lat="51.193206274068" lon="4.485755504592">
        <ele>0</ele>
        <time>2020-06-07T15:01:47Z</time>
      </trkpt>
      <trkpt lat="51.193039055163" lon="4.48493843698">
        <ele>1</ele>
        <time>2020-06-07T15:02:05Z</time>
      </trkpt>
      <trkpt lat="51.193234688709" lon="4.484131427648">
        <ele>1.6</ele>
        <time>2020-06-07T15:02:27Z</time>
      </trkpt>
      <trkpt lat="51.193340719744" lon="4.483290220164">
        <ele>2.2</ele>
        <time>2020-06-07T15:02:46Z</time>
      </trkpt>
      <trkpt lat="51.193251452509" lon="4.482493017655">
        <ele>2.6</ele>
        <time>2020-06-07T15:03:07Z</time>
      </trkpt>
      <trkpt lat="51.193426131305" lon="4.482378939996">
        <ele>2.6</ele>
        <time>2020-06-07T15:03:15Z</time>
      </trkpt>
      <trkpt lat="51.193924938174" lon="4.482139888208">
        <ele>1.4</ele>
        <time>2020-06-07T15:03:36Z</time>
      </trkpt>
      <trkpt lat="51.194452411141" lon="4.482073084465">
        <ele>3</ele>
        <time>2020-06-07T15:03:55Z</time>
      </trkpt>
      <trkpt lat="51.194715351344" lon="4.482220857362">
        <ele>8.4</ele>
        <time>2020-06-07T15:04:13Z</time>
      </trkpt>
      <trkpt lat="51.195252379677" lon="4.48246661467">
        <ele>12</ele>
        <time>2020-06-07T15:04:33Z</time>
      </trkpt>
      <trkpt lat="51.195624703675" lon="4.482459406236">
        <ele>15.6</ele>
        <time>2020-06-07T15:04:45Z</time>
      </trkpt>
      <trkpt lat="51.195771303106" lon="4.481606296454">
        <ele>8.4</ele>
        <time>2020-06-07T15:05:01Z</time>
      </trkpt>
      <trkpt lat="51.195899881452" lon="4.480998441066">
        <ele>4.8</ele>
        <time>2020-06-07T15:05:16Z</time>
      </trkpt>
      <trkpt lat="51.195930894482" lon="4.480096800083">
        <ele>3.2</ele>
        <time>2020-06-07T15:05:36Z</time>
      </trkpt>
      <trkpt lat="51.196164162759" lon="4.479314852632">
        <ele>5.4</ele>
        <time>2020-06-07T15:06:00Z</time>
      </trkpt>
      <trkpt lat="51.196321491022" lon="4.478453193312">
        <ele>8.6</ele>
        <time>2020-06-07T15:06:20Z</time>
      </trkpt>
      <trkpt lat="51.196497175646" lon="4.477633192035">
        <ele>7</ele>
        <time>2020-06-07T15:06:40Z</time>
      </trkpt>
      <trkpt lat="51.19669465321" lon="4.476816124423">
        <ele>7</ele>
        <time>2020-06-07T15:07:00Z</time>
      </trkpt>
      <trkpt lat="51.196895148258" lon="4.475996709879">
        <ele>6.8</ele>
        <time>2020-06-07T15:07:18Z</time>
      </trkpt>
      <trkpt lat="51.197096816772" lon="4.475154412748">
        <ele>6.8</ele>
        <time>2020-06-07T15:07:36Z</time>
      </trkpt>
      <trkpt lat="51.19732245752" lon="4.474367519976">
        <ele>7</ele>
        <time>2020-06-07T15:07:55Z</time>
      </trkpt>
      <trkpt lat="51.197551031933" lon="4.473550452364">
        <ele>9.4</ele>
        <time>2020-06-07T15:08:11Z</time>
      </trkpt>
      <trkpt lat="51.197769045152" lon="4.472717123866">
        <ele>8.2</ele>
        <time>2020-06-07T15:08:27Z</time>
      </trkpt>
      <trkpt lat="51.197861246052" lon="4.472320240901">
        <ele>8.4</ele>
        <time>2020-06-07T15:08:36Z</time>
      </trkpt>
      <trkpt lat="51.197892259082" lon="4.472245474353">
        <ele>8</ele>
        <time>2020-06-07T15:08:38Z</time>
      </trkpt>
      <trkpt lat="51.197915393126" lon="4.472111531591">
        <ele>7.6</ele>
        <time>2020-06-07T15:08:41Z</time>
      </trkpt>
      <trkpt lat="51.197978425014" lon="4.472009691506">
        <ele>7.4</ele>
        <time>2020-06-07T15:08:44Z</time>
      </trkpt>
      <trkpt lat="51.198179003881" lon="4.47121978125">
        <ele>6.4</ele>
        <time>2020-06-07T15:09:01Z</time>
      </trkpt>
      <trkpt lat="51.19844395574" lon="4.470442276206">
        <ele>4.8</ele>
        <time>2020-06-07T15:09:18Z</time>
      </trkpt>
      <trkpt lat="51.198958436762" lon="4.470261981537">
        <ele>2.2</ele>
        <time>2020-06-07T15:09:35Z</time>
      </trkpt>
      <trkpt lat="51.199169660642" lon="4.469464276114">
        <ele>2</ele>
        <time>2020-06-07T15:09:52Z</time>
      </trkpt>
      <trkpt lat="51.199457830364" lon="4.468753071899">
        <ele>3.4</ele>
        <time>2020-06-07T15:10:11Z</time>
      </trkpt>
      <trkpt lat="51.199693948487" lon="4.4679550312">
        <ele>4</ele>
        <time>2020-06-07T15:10:31Z</time>
      </trkpt>
      <trkpt lat="51.19991246462" lon="4.467163696021">
        <ele>3.6</ele>
        <time>2020-06-07T15:10:51Z</time>
      </trkpt>
      <trkpt lat="51.200412528774" lon="4.467006786853">
        <ele>6</ele>
        <time>2020-06-07T15:11:13Z</time>
      </trkpt>
      <trkpt lat="51.200955508256" lon="4.467071914216">
        <ele>13.8</ele>
        <time>2020-06-07T15:11:31Z</time>
      </trkpt>
      <trkpt lat="51.201496895177" lon="4.467121451245">
        <ele>18.2</ele>
        <time>2020-06-07T15:11:49Z</time>
      </trkpt>
      <trkpt lat="51.202056722278" lon="4.467253969084">
        <ele>19.2</ele>
        <time>2020-06-07T15:12:08Z</time>
      </trkpt>
      <trkpt lat="51.20259215805" lon="4.4673347706">
        <ele>12.2</ele>
        <time>2020-06-07T15:12:34Z</time>
      </trkpt>
      <trkpt lat="51.203130527487" lon="4.467455302322">
        <ele>15.8</ele>
        <time>2020-06-07T15:12:56Z</time>
      </trkpt>
      <trkpt lat="51.203684654896" lon="4.467498050012">
        <ele>27.4</ele>
        <time>2020-06-07T15:13:13Z</time>
      </trkpt>
      <trkpt lat="51.204238111753" lon="4.467620761028">
        <ele>25.2</ele>
        <time>2020-06-07T15:13:31Z</time>
      </trkpt>
      <trkpt lat="51.204794334637" lon="4.467652360791">
        <ele>21.4</ele>
        <time>2020-06-07T15:13:48Z</time>
      </trkpt>
      <trkpt lat="51.205352485358" lon="4.467734251954">
        <ele>16</ele>
        <time>2020-06-07T15:14:06Z</time>
      </trkpt>
      <trkpt lat="51.205902673274" lon="4.467816394574">
        <ele>15.6</ele>
        <time>2020-06-07T15:14:30Z</time>
      </trkpt>
      <trkpt lat="51.206436348847" lon="4.467938351219">
        <ele>21</ele>
        <time>2020-06-07T15:15:07Z</time>
      </trkpt>
      <trkpt lat="51.206447245317" lon="4.467902476687">
        <ele>20.6</ele>
        <time>2020-06-07T15:15:09Z</time>
      </trkpt>
      <trkpt lat="51.206506840626" lon="4.467841288817">
        <ele>16.8</ele>
        <time>2020-06-07T15:15:18Z</time>
      </trkpt>
      <trkpt lat="51.207065075166" lon="4.467983697298">
        <ele>22.8</ele>
        <time>2020-06-07T15:15:37Z</time>
      </trkpt>
      <trkpt lat="51.207610988313" lon="4.468080089148">
        <ele>16.8</ele>
        <time>2020-06-07T15:15:52Z</time>
      </trkpt>
      <trkpt lat="51.2081703125" lon="4.468198441576">
        <ele>16.2</ele>
        <time>2020-06-07T15:16:14Z</time>
      </trkpt>
      <trkpt lat="51.208724523728" lon="4.468300784575">
        <ele>17.6</ele>
        <time>2020-06-07T15:16:31Z</time>
      </trkpt>
      <trkpt lat="51.208929628821" lon="4.468373790924">
        <ele>10.6</ele>
        <time>2020-06-07T15:16:39Z</time>
      </trkpt>
      <trkpt lat="51.208942788404" lon="4.469236456072">
        <ele>3</ele>
        <time>2020-06-07T15:17:04Z</time>
      </trkpt>
      <trkpt lat="51.208902303827" lon="4.470122674359">
        <ele>2.6</ele>
        <time>2020-06-07T15:17:30Z</time>
      </trkpt>
      <trkpt lat="51.208921414559" lon="4.471018028917">
        <ele>2.6</ele>
        <time>2020-06-07T15:17:53Z</time>
      </trkpt>
      <trkpt lat="51.208925270233" lon="4.471885807024">
        <ele>1.6</ele>
        <time>2020-06-07T15:18:10Z</time>
      </trkpt>
      <trkpt lat="51.208923426215" lon="4.472531297143">
        <ele>0.8</ele>
        <time>2020-06-07T15:18:26Z</time>
      </trkpt>
      <trkpt lat="51.208977824746" lon="4.472532805885">
        <ele>2.4</ele>
        <time>2020-06-07T15:19:24Z</time>
      </trkpt>
      <trkpt lat="51.209000623514" lon="4.47254915059">
        <ele>3.4</ele>
        <time>2020-06-07T15:19:26Z</time>
      </trkpt>
      <trkpt lat="51.209458442892" lon="4.473050472029">
        <ele>6.6</ele>
        <time>2020-06-07T15:19:51Z</time>
      </trkpt>
      <trkpt lat="51.210146010149" lon="4.474343296285">
        <ele>0</ele>
        <time>2020-06-07T15:20:30Z</time>
      </trkpt>
      <trkpt lat="51.210338039478" lon="4.475156675861">
        <ele>0</ele>
        <time>2020-06-07T15:20:47Z</time>
      </trkpt>
      <trkpt lat="51.210492014981" lon="4.476014479507">
        <ele>0</ele>
        <time>2020-06-07T15:21:05Z</time>
      </trkpt>
      <trkpt lat="51.210722852507" lon="4.476794666759">
        <ele>3.8</ele>
        <time>2020-06-07T15:21:21Z</time>
      </trkpt>
      <trkpt lat="51.210996772999" lon="4.477568986681">
        <ele>4</ele>
        <time>2020-06-07T15:21:40Z</time>
      </trkpt>
      <trkpt lat="51.211263904152" lon="4.478358310204">
        <ele>7.2</ele>
        <time>2020-06-07T15:22:02Z</time>
      </trkpt>
      <trkpt lat="51.211689537034" lon="4.478919981323">
        <ele>5.6</ele>
        <time>2020-06-07T15:22:17Z</time>
      </trkpt>
      <trkpt lat="51.211767153428" lon="4.478984438134">
        <ele>5.2</ele>
        <time>2020-06-07T15:22:21Z</time>
      </trkpt>
      <trkpt lat="51.211881734001" lon="4.478648072487">
        <ele>1.6</ele>
        <time>2020-06-07T15:22:34Z</time>
      </trkpt>
      <trkpt lat="51.212341229759" lon="4.478478339012">
        <ele>0</ele>
        <time>2020-06-07T15:22:53Z</time>
      </trkpt>
      <trkpt lat="51.212369225305" lon="4.478489822215">
        <ele>0</ele>
        <time>2020-06-07T15:22:56Z</time>
      </trkpt>
      <trkpt lat="51.212410883348" lon="4.478463167773">
        <ele>0</ele>
        <time>2020-06-07T15:25:09Z</time>
      </trkpt>
      <trkpt lat="51.212483302964" lon="4.47849359407">
        <ele>0</ele>
        <time>2020-06-07T15:25:13Z</time>
      </trkpt>
      <trkpt lat="51.212961322721" lon="4.478919143133">
        <ele>0</ele>
        <time>2020-06-07T15:25:29Z</time>
      </trkpt>
      <trkpt lat="51.213313865435" lon="4.479088625151">
        <ele>0</ele>
        <time>2020-06-07T15:25:41Z</time>
      </trkpt>
      <trkpt lat="51.213527436247" lon="4.478315646333">
        <ele>0</ele>
        <time>2020-06-07T15:25:57Z</time>
      </trkpt>
      <trkpt lat="51.214005036909" lon="4.478038373081">
        <ele>0</ele>
        <time>2020-06-07T15:26:12Z</time>
      </trkpt>
      <trkpt lat="51.214204693767" lon="4.477817007102">
        <ele>0</ele>
        <time>2020-06-07T15:26:19Z</time>
      </trkpt>
      <trkpt lat="51.214401919874" lon="4.477460021981">
        <ele>0</ele>
        <time>2020-06-07T15:26:36Z</time>
      </trkpt>
      <trkpt lat="51.21427485027" lon="4.476626861121">
        <ele>0</ele>
        <time>2020-06-07T15:26:54Z</time>
      </trkpt>
      <trkpt lat="51.214610042451" lon="4.476154038142">
        <ele>0</ele>
        <time>2020-06-07T15:27:13Z</time>
      </trkpt>
      <trkpt lat="51.214870468084" lon="4.475813984459">
        <ele>3.4</ele>
        <time>2020-06-07T15:27:29Z</time>
      </trkpt>
      <trkpt lat="51.215123601464" lon="4.475692446909">
        <ele>1.6</ele>
        <time>2020-06-07T15:28:14Z</time>
      </trkpt>
      <trkpt lat="51.21562685074" lon="4.475358931108">
        <ele>0</ele>
        <time>2020-06-07T15:28:34Z</time>
      </trkpt>
      <trkpt lat="51.215715866518" lon="4.475232951151">
        <ele>0</ele>
        <time>2020-06-07T15:28:38Z</time>
      </trkpt>
      <trkpt lat="51.21568552404" lon="4.474339859706">
        <ele>0</ele>
        <time>2020-06-07T15:28:56Z</time>
      </trkpt>
      <trkpt lat="51.215670101344" lon="4.473459927844">
        <ele>0</ele>
        <time>2020-06-07T15:29:10Z</time>
      </trkpt>
      <trkpt lat="51.215629281491" lon="4.472588210244">
        <ele>0</ele>
        <time>2020-06-07T15:29:28Z</time>
      </trkpt>
      <trkpt lat="51.215880235577" lon="4.472014720646">
        <ele>0</ele>
        <time>2020-06-07T15:29:51Z</time>
      </trkpt>
      <trkpt lat="51.216353058556" lon="4.471653796032">
        <ele>2.4</ele>
        <time>2020-06-07T15:30:14Z</time>
      </trkpt>
      <trkpt lat="51.216432770425" lon="4.470758860569">
        <ele>0</ele>
        <time>2020-06-07T15:30:33Z</time>
      </trkpt>
      <trkpt lat="51.216591942706" lon="4.46992813046">
        <ele>0</ele>
        <time>2020-06-07T15:30:56Z</time>
      </trkpt>
      <trkpt lat="51.21704003908" lon="4.46939755619">
        <ele>0</ele>
        <time>2020-06-07T15:31:15Z</time>
      </trkpt>
      <trkpt lat="51.217521579235" lon="4.46896002101">
        <ele>0</ele>
        <time>2020-06-07T15:31:34Z</time>
      </trkpt>
      <trkpt lat="51.217549239505" lon="4.468990363488">
        <ele>0</ele>
        <time>2020-06-07T15:31:36Z</time>
      </trkpt>
      <trkpt lat="51.217585114037" lon="4.469083654035">
        <ele>0</ele>
        <time>2020-06-07T15:31:40Z</time>
      </trkpt>
      <trkpt lat="51.217939919864" lon="4.469252968415">
        <ele>0</ele>
        <time>2020-06-07T15:32:06Z</time>
      </trkpt>
      <trkpt lat="51.218220042962" lon="4.469521859767">
        <ele>0</ele>
        <time>2020-06-07T15:32:29Z</time>
      </trkpt>
      <trkpt lat="51.218537633153" lon="4.468837058537">
        <ele>0</ele>
        <time>2020-06-07T15:32:47Z</time>
      </trkpt>
      <trkpt lat="51.219079271531" lon="4.468958931363">
        <ele>0</ele>
        <time>2020-06-07T15:33:11Z</time>
      </trkpt>
      <trkpt lat="51.219639014813" lon="4.46902623802">
        <ele>0</ele>
        <time>2020-06-07T15:33:31Z</time>
      </trkpt>
      <trkpt lat="51.219897847885" lon="4.468709066924">
        <ele>0</ele>
        <time>2020-06-07T15:33:51Z</time>
      </trkpt>
      <trkpt lat="51.219924083232" lon="4.468660451904">
        <ele>0</ele>
        <time>2020-06-07T15:34:32Z</time>
      </trkpt>
      <trkpt lat="51.219951659683" lon="4.468656847687">
        <ele>0</ele>
        <time>2020-06-07T15:34:34Z</time>
      </trkpt>
      <trkpt lat="51.220127260488" lon="4.468697332264">
        <ele>0.4</ele>
        <time>2020-06-07T15:34:45Z</time>
      </trkpt>
      <trkpt lat="51.220672838359" lon="4.468792718286">
        <ele>14</ele>
        <time>2020-06-07T15:35:04Z</time>
      </trkpt>
      <trkpt lat="51.221215817841" lon="4.468882823711">
        <ele>15.6</ele>
        <time>2020-06-07T15:35:26Z</time>
      </trkpt>
      <trkpt lat="51.221262253567" lon="4.46883680708">
        <ele>13.2</ele>
        <time>2020-06-07T15:35:28Z</time>
      </trkpt>
      <trkpt lat="51.221280190833" lon="4.467958216322">
        <ele>10.8</ele>
        <time>2020-06-07T15:35:47Z</time>
      </trkpt>
      <trkpt lat="51.221288153638" lon="4.467083648876">
        <ele>13.2</ele>
        <time>2020-06-07T15:36:06Z</time>
      </trkpt>
      <trkpt lat="51.221301899954" lon="4.466205477213">
        <ele>13.8</ele>
        <time>2020-06-07T15:36:27Z</time>
      </trkpt>
      <trkpt lat="51.221332661527" lon="4.465344488445">
        <ele>18.8</ele>
        <time>2020-06-07T15:36:49Z</time>
      </trkpt>
      <trkpt lat="51.221392089198" lon="4.46447067537">
        <ele>25</ele>
        <time>2020-06-07T15:37:11Z</time>
      </trkpt>
      <trkpt lat="51.221449253756" lon="4.463595772648">
        <ele>22.4</ele>
        <time>2020-06-07T15:37:32Z</time>
      </trkpt>
      <trkpt lat="51.221522427743" lon="4.462721624297">
        <ele>20.6</ele>
        <time>2020-06-07T15:37:50Z</time>
      </trkpt>
      <trkpt lat="51.221566684175" lon="4.462355419086">
        <ele>13.8</ele>
        <time>2020-06-07T15:37:58Z</time>
      </trkpt>
      <trkpt lat="51.221590740228" lon="4.462384169003">
        <ele>11.2</ele>
        <time>2020-06-07T15:38:03Z</time>
      </trkpt>
      <trkpt lat="51.222053002013" lon="4.462776609561">
        <ele>3.8</ele>
        <time>2020-06-07T15:38:41Z</time>
      </trkpt>
      <trkpt lat="51.222546695923" lon="4.462381570614">
        <ele>11.8</ele>
        <time>2020-06-07T15:38:59Z</time>
      </trkpt>
      <trkpt lat="51.223042150032" lon="4.462041852207">
        <ele>6.8</ele>
        <time>2020-06-07T15:39:15Z</time>
      </trkpt>
      <trkpt lat="51.223520588884" lon="4.46159568367">
        <ele>1.6</ele>
        <time>2020-06-07T15:39:33Z</time>
      </trkpt>
      <trkpt lat="51.224036578648" lon="4.461265688267">
        <ele>6.8</ele>
        <time>2020-06-07T15:39:50Z</time>
      </trkpt>
      <trkpt lat="51.224537145716" lon="4.460939967633">
        <ele>7.4</ele>
        <time>2020-06-07T15:40:06Z</time>
      </trkpt>
      <trkpt lat="51.225054476584" lon="4.460570912576">
        <ele>9.8</ele>
        <time>2020-06-07T15:40:23Z</time>
      </trkpt>
      <trkpt lat="51.225547499942" lon="4.460195990189">
        <ele>10.2</ele>
        <time>2020-06-07T15:40:42Z</time>
      </trkpt>
      <trkpt lat="51.226046055354" lon="4.459814194644">
        <ele>4.4</ele>
        <time>2020-06-07T15:41:01Z</time>
      </trkpt>
      <trkpt lat="51.225907837823" lon="4.459094943805">
        <ele>10.8</ele>
        <time>2020-06-07T15:41:21Z</time>
      </trkpt>
      <trkpt lat="51.225836507854" lon="4.458899645535">
        <ele>9.8</ele>
        <time>2020-06-07T15:41:26Z</time>
      </trkpt>
      <trkpt lat="51.22586282702" lon="4.458838457665">
        <ele>7.2</ele>
        <time>2020-06-07T15:41:31Z</time>
      </trkpt>
      <trkpt lat="51.225905155615" lon="4.458823034969">
        <ele>2</ele>
        <time>2020-06-07T15:41:45Z</time>
      </trkpt>
      <trkpt lat="51.225921081225" lon="4.458819011657">
        <ele>1.6</ele>
        <time>2020-06-07T15:41:46Z</time>
      </trkpt>
      <trkpt lat="51.22644704545" lon="4.458498152525">
        <ele>1.2</ele>
        <time>2020-06-07T15:42:05Z</time>
      </trkpt>
      <trkpt lat="51.226958006074" lon="4.458153572616">
        <ele>0</ele>
        <time>2020-06-07T15:42:21Z</time>
      </trkpt>
      <trkpt lat="51.227481455729" lon="4.457834557502">
        <ele>0</ele>
        <time>2020-06-07T15:42:38Z</time>
      </trkpt>
      <trkpt lat="51.22800859342" lon="4.45751705113">
        <ele>0</ele>
        <time>2020-06-07T15:42:51Z</time>
      </trkpt>
      <trkpt lat="51.228527600668" lon="4.457237850041">
        <ele>0</ele>
        <time>2020-06-07T15:43:07Z</time>
      </trkpt>
      <trkpt lat="51.229063790811" lon="4.457064009435">
        <ele>0</ele>
        <time>2020-06-07T15:43:24Z</time>
      </trkpt>
      <trkpt lat="51.229600735325" lon="4.456905759163">
        <ele>0</ele>
        <time>2020-06-07T15:43:42Z</time>
      </trkpt>
      <trkpt lat="51.229734007535" lon="4.456675424551">
        <ele>0.6</ele>
        <time>2020-06-07T15:43:49Z</time>
      </trkpt>
      <trkpt lat="51.22977382156" lon="4.456707694866">
        <ele>0.6</ele>
        <time>2020-06-07T15:43:51Z</time>
      </trkpt>
      <trkpt lat="51.230305904572" lon="4.456628066816">
        <ele>0</ele>
        <time>2020-06-07T15:44:10Z</time>
      </trkpt>
      <trkpt lat="51.230836730299" lon="4.4564634463">
        <ele>1.6</ele>
        <time>2020-06-07T15:44:30Z</time>
      </trkpt>
      <trkpt lat="51.231341907412" lon="4.456420950067">
        <ele>0</ele>
        <time>2020-06-07T15:44:53Z</time>
      </trkpt>
      <trkpt lat="51.231437880167" lon="4.456390356132">
        <ele>0.4</ele>
        <time>2020-06-07T15:44:57Z</time>
      </trkpt>
      <trkpt lat="51.231481130771" lon="4.456219868286">
        <ele>2.8</ele>
        <time>2020-06-07T15:45:02Z</time>
      </trkpt>
      <trkpt lat="51.231237049843" lon="4.455457031567">
        <ele>12.2</ele>
        <time>2020-06-07T15:45:21Z</time>
      </trkpt>
      <trkpt lat="51.231112662447" lon="4.454589421098">
        <ele>14</ele>
        <time>2020-06-07T15:45:40Z</time>
      </trkpt>
      <trkpt lat="51.231029849275" lon="4.454202596413">
        <ele>10.8</ele>
        <time>2020-06-07T15:45:50Z</time>
      </trkpt>
      <trkpt lat="51.230900013644" lon="4.45339147995">
        <ele>12.8</ele>
        <time>2020-06-07T15:46:12Z</time>
      </trkpt>
      <trkpt lat="51.230760957923" lon="4.452562342402">
        <ele>16.4</ele>
        <time>2020-06-07T15:46:41Z</time>
      </trkpt>
      <trkpt lat="51.23062961355" lon="4.451719877633">
        <ele>16.6</ele>
        <time>2020-06-07T15:46:58Z</time>
      </trkpt>
      <trkpt lat="51.230463987206" lon="4.450871545534">
        <ele>14</ele>
        <time>2020-06-07T15:47:19Z</time>
      </trkpt>
      <trkpt lat="51.230276987017" lon="4.450024386901">
        <ele>19.8</ele>
        <time>2020-06-07T15:47:40Z</time>
      </trkpt>
      <trkpt lat="51.230097027624" lon="4.449207403108">
        <ele>28.6</ele>
        <time>2020-06-07T15:48:00Z</time>
      </trkpt>
      <trkpt lat="51.229889994694" lon="4.448384635804">
        <ele>21.6</ele>
        <time>2020-06-07T15:48:20Z</time>
      </trkpt>
      <trkpt lat="51.229877589482" lon="4.448354209507">
        <ele>21.2</ele>
        <time>2020-06-07T15:48:21Z</time>
      </trkpt>
      <trkpt lat="51.229694696424" lon="4.447543595958">
        <ele>18.2</ele>
        <time>2020-06-07T15:48:40Z</time>
      </trkpt>
      <trkpt lat="51.22951146809" lon="4.446916713657">
        <ele>11.8</ele>
        <time>2020-06-07T15:48:57Z</time>
      </trkpt>
      <trkpt lat="51.229084997018" lon="4.447509481625">
        <ele>1.4</ele>
        <time>2020-06-07T15:49:14Z</time>
      </trkpt>
      <trkpt lat="51.228769586121" lon="4.448047264329">
        <ele>0</ele>
        <time>2020-06-07T15:49:29Z</time>
      </trkpt>
      <trkpt lat="51.229162864869" lon="4.448690742792">
        <ele>4.4</ele>
        <time>2020-06-07T15:49:47Z</time>
      </trkpt>
      <trkpt lat="51.229456650464" lon="4.449394487116">
        <ele>5</ele>
        <time>2020-06-07T15:50:03Z</time>
      </trkpt>
      <trkpt lat="51.229607776121" lon="4.450215075126">
        <ele>9</ele>
        <time>2020-06-07T15:50:25Z</time>
      </trkpt>
      <trkpt lat="51.229587491923" lon="4.4502356946">
        <ele>10.6</ele>
        <time>2020-06-07T15:50:27Z</time>
      </trkpt>
      <trkpt lat="51.229426559443" lon="4.449378310049">
        <ele>18</ele>
        <time>2020-06-07T15:50:55Z</time>
      </trkpt>
      <trkpt lat="51.228896068992" lon="4.448707506592">
        <ele>7.2</ele>
        <time>2020-06-07T15:51:25Z</time>
      </trkpt>
      <trkpt lat="51.228875617156" lon="4.448714295931">
        <ele>5.4</ele>
        <time>2020-06-07T15:51:27Z</time>
      </trkpt>
    </trkseg>
  </trk>
</gpx>